sensor_id;sensor_type;location;lat;lon;timestamp;P1;durP1;ratioP1;P2;durP2;ratioP2
74616;SDS011;63123;50.906;4.198;2023-07-16T00:02:09;2.40;;;1.33;;
74616;SDS011;63123;50.906;4.198;2023-07-16T00:04:35;1.33;;;1.00;;
74616;SDS011;63123;50.906;4.198;2023-07-16T00:07:01;1.30;;;0.88;;
74616;SDS011;63123;50.906;4.198;2023-07-16T00:09:27;1.55;;;1.00;;
74616;SDS011;63123;50.906;4.198;2023-07-16T00:11:53;1.45;;;1.10;;
74616;SDS011;63123;50.906;4.198;2023-07-16T00:14:18;2.10;;;1.30;;
74616;SDS011;63123;50.906;4.198;2023-07-16T00:16:44;1.80;;;1.42;;
74616;SDS011;63123;50.906;4.198;2023-07-16T00:19:10;2.08;;;1.55;;
74616;SDS011;63123;50.906;4.198;2023-07-16T00:21:36;1.35;;;1.13;;
74616;SDS011;63123;50.906;4.198;2023-07-16T00:24:02;1.95;;;1.35;;
74616;SDS011;63123;50.906;4.198;2023-07-16T00:26:28;1.55;;;1.23;;
74616;SDS011;63123;50.906;4.198;2023-07-16T00:28:54;2.38;;;1.08;;
74616;SDS011;63123;50.906;4.198;2023-07-16T00:31:19;1.38;;;1.17;;
74616;SDS011;63123;50.906;4.198;2023-07-16T00:33:45;2.67;;;1.27;;
74616;SDS011;63123;50.906;4.198;2023-07-16T00:36:11;2.10;;;1.17;;
74616;SDS011;63123;50.906;4.198;2023-07-16T00:38:36;2.83;;;1.02;;
74616;SDS011;63123;50.906;4.198;2023-07-16T00:41:02;3.78;;;1.30;;
74616;SDS011;63123;50.906;4.198;2023-07-16T00:43:27;1.40;;;1.00;;
74616;SDS011;63123;50.906;4.198;2023-07-16T00:45:53;1.63;;;1.23;;
74616;SDS011;63123;50.906;4.198;2023-07-16T00:48:19;1.65;;;1.45;;
74616;SDS011;63123;50.906;4.198;2023-07-16T00:50:45;1.83;;;1.23;;
74616;SDS011;63123;50.906;4.198;2023-07-16T00:53:10;1.75;;;1.40;;
74616;SDS011;63123;50.906;4.198;2023-07-16T00:55:37;1.52;;;1.17;;
74616;SDS011;63123;50.906;4.198;2023-07-16T00:58:07;1.40;;;1.17;;
74616;SDS011;63123;50.906;4.198;2023-07-16T01:00:37;1.17;;;1.00;;
74616;SDS011;63123;50.906;4.198;2023-07-16T01:03:05;1.95;;;1.48;;
74616;SDS011;63123;50.906;4.198;2023-07-16T01:08:39;1.50;;;1.00;;
74616;SDS011;63123;50.906;4.198;2023-07-16T01:11:09;1.50;;;1.20;;
74616;SDS011;63123;50.906;4.198;2023-07-16T01:13:36;1.92;;;1.40;;
74616;SDS011;63123;50.906;4.198;2023-07-16T01:16:01;1.92;;;1.40;;
74616;SDS011;63123;50.906;4.198;2023-07-16T01:18:27;1.90;;;1.10;;
74616;SDS011;63123;50.906;4.198;2023-07-16T01:20:53;2.08;;;1.48;;
74616;SDS011;63123;50.906;4.198;2023-07-16T01:31:15;1.20;;;0.98;;
74616;SDS011;63123;50.906;4.198;2023-07-16T01:33:42;2.90;;;1.77;;
74616;SDS011;63123;50.906;4.198;2023-07-16T01:36:09;3.13;;;1.10;;
74616;SDS011;63123;50.906;4.198;2023-07-16T01:38:35;1.45;;;1.05;;
74616;SDS011;63123;50.906;4.198;2023-07-16T01:41:01;1.83;;;1.35;;
74616;SDS011;63123;50.906;4.198;2023-07-16T01:43:27;1.65;;;1.33;;
74616;SDS011;63123;50.906;4.198;2023-07-16T01:45:53;2.00;;;1.48;;
74616;SDS011;63123;50.906;4.198;2023-07-16T01:48:24;2.13;;;1.38;;
74616;SDS011;63123;50.906;4.198;2023-07-16T01:51:00;1.90;;;1.40;;
74616;SDS011;63123;50.906;4.198;2023-07-16T01:53:26;1.70;;;1.00;;
74616;SDS011;63123;50.906;4.198;2023-07-16T01:55:52;2.75;;;1.17;;
74616;SDS011;63123;50.906;4.198;2023-07-16T01:58:17;1.88;;;1.50;;
74616;SDS011;63123;50.906;4.198;2023-07-16T02:00:43;1.70;;;1.13;;
74616;SDS011;63123;50.906;4.198;2023-07-16T02:03:09;3.05;;;1.20;;
74616;SDS011;63123;50.906;4.198;2023-07-16T02:05:34;2.42;;;1.30;;
74616;SDS011;63123;50.906;4.198;2023-07-16T02:08:00;1.77;;;1.45;;
74616;SDS011;63123;50.906;4.198;2023-07-16T02:10:25;1.13;;;0.98;;
74616;SDS011;63123;50.906;4.198;2023-07-16T02:12:51;1.90;;;1.27;;
74616;SDS011;63123;50.906;4.198;2023-07-16T02:15:16;2.70;;;1.30;;
74616;SDS011;63123;50.906;4.198;2023-07-16T02:17:43;1.45;;;1.13;;
74616;SDS011;63123;50.906;4.198;2023-07-16T02:20:09;1.67;;;1.30;;
74616;SDS011;63123;50.906;4.198;2023-07-16T02:22:38;1.25;;;1.10;;
74616;SDS011;63123;50.906;4.198;2023-07-16T02:25:04;1.98;;;1.42;;
74616;SDS011;63123;50.906;4.198;2023-07-16T02:27:30;1.70;;;1.15;;
74616;SDS011;63123;50.906;4.198;2023-07-16T02:29:56;1.13;;;1.02;;
74616;SDS011;63123;50.906;4.198;2023-07-16T02:32:22;1.42;;;1.20;;
74616;SDS011;63123;50.906;4.198;2023-07-16T02:34:48;2.58;;;1.45;;
74616;SDS011;63123;50.906;4.198;2023-07-16T02:37:14;2.15;;;1.65;;
74616;SDS011;63123;50.906;4.198;2023-07-16T02:39:41;1.58;;;1.05;;
74616;SDS011;63123;50.906;4.198;2023-07-16T02:42:07;1.50;;;1.30;;
74616;SDS011;63123;50.906;4.198;2023-07-16T02:44:33;1.70;;;1.42;;
74616;SDS011;63123;50.906;4.198;2023-07-16T02:46:59;1.33;;;1.02;;
74616;SDS011;63123;50.906;4.198;2023-07-16T02:49:25;1.55;;;1.45;;
74616;SDS011;63123;50.906;4.198;2023-07-16T02:51:50;1.77;;;1.13;;
74616;SDS011;63123;50.906;4.198;2023-07-16T02:54:16;1.30;;;1.15;;
74616;SDS011;63123;50.906;4.198;2023-07-16T02:56:41;1.48;;;1.05;;
74616;SDS011;63123;50.906;4.198;2023-07-16T02:59:07;2.17;;;1.38;;
74616;SDS011;63123;50.906;4.198;2023-07-16T03:01:32;1.73;;;1.35;;
74616;SDS011;63123;50.906;4.198;2023-07-16T03:03:58;1.90;;;1.20;;
74616;SDS011;63123;50.906;4.198;2023-07-16T03:06:24;1.83;;;1.48;;
74616;SDS011;63123;50.906;4.198;2023-07-16T03:08:49;1.75;;;1.15;;
74616;SDS011;63123;50.906;4.198;2023-07-16T03:11:15;1.52;;;1.25;;
74616;SDS011;63123;50.906;4.198;2023-07-16T03:13:40;1.83;;;1.33;;
74616;SDS011;63123;50.906;4.198;2023-07-16T03:16:06;2.30;;;1.40;;
74616;SDS011;63123;50.906;4.198;2023-07-16T03:18:32;1.95;;;1.42;;
74616;SDS011;63123;50.906;4.198;2023-07-16T03:20:57;2.00;;;1.58;;
74616;SDS011;63123;50.906;4.198;2023-07-16T03:23:23;2.03;;;1.30;;
74616;SDS011;63123;50.906;4.198;2023-07-16T03:25:49;1.80;;;1.23;;
74616;SDS011;63123;50.906;4.198;2023-07-16T03:28:16;1.98;;;1.40;;
74616;SDS011;63123;50.906;4.198;2023-07-16T03:30:46;1.75;;;1.38;;
74616;SDS011;63123;50.906;4.198;2023-07-16T03:33:12;1.20;;;1.10;;
74616;SDS011;63123;50.906;4.198;2023-07-16T03:35:37;1.38;;;1.27;;
74616;SDS011;63123;50.906;4.198;2023-07-16T03:38:03;1.65;;;1.35;;
74616;SDS011;63123;50.906;4.198;2023-07-16T03:40:29;2.25;;;1.30;;
74616;SDS011;63123;50.906;4.198;2023-07-16T03:42:55;1.70;;;1.50;;
74616;SDS011;63123;50.906;4.198;2023-07-16T03:45:21;3.05;;;1.63;;
74616;SDS011;63123;50.906;4.198;2023-07-16T03:47:46;2.22;;;1.35;;
74616;SDS011;63123;50.906;4.198;2023-07-16T03:50:12;2.20;;;1.48;;
74616;SDS011;63123;50.906;4.198;2023-07-16T03:52:37;1.63;;;1.42;;
74616;SDS011;63123;50.906;4.198;2023-07-16T03:55:03;3.13;;;1.80;;
74616;SDS011;63123;50.906;4.198;2023-07-16T03:57:29;1.67;;;1.58;;
74616;SDS011;63123;50.906;4.198;2023-07-16T03:59:55;1.90;;;1.75;;
74616;SDS011;63123;50.906;4.198;2023-07-16T04:02:20;2.20;;;2.00;;
74616;SDS011;63123;50.906;4.198;2023-07-16T04:04:46;2.00;;;1.73;;
74616;SDS011;63123;50.906;4.198;2023-07-16T04:07:12;1.83;;;1.50;;
74616;SDS011;63123;50.906;4.198;2023-07-16T04:09:38;1.95;;;1.33;;
74616;SDS011;63123;50.906;4.198;2023-07-16T04:12:04;1.88;;;1.77;;
74616;SDS011;63123;50.906;4.198;2023-07-16T04:14:31;2.13;;;1.50;;
74616;SDS011;63123;50.906;4.198;2023-07-16T04:16:57;2.25;;;2.05;;
74616;SDS011;63123;50.906;4.198;2023-07-16T04:19:23;1.85;;;1.45;;
74616;SDS011;63123;50.906;4.198;2023-07-16T04:21:48;1.85;;;1.63;;
74616;SDS011;63123;50.906;4.198;2023-07-16T04:24:14;2.13;;;1.70;;
74616;SDS011;63123;50.906;4.198;2023-07-16T04:26:39;1.80;;;1.52;;
74616;SDS011;63123;50.906;4.198;2023-07-16T04:29:05;2.42;;;2.13;;
74616;SDS011;63123;50.906;4.198;2023-07-16T04:31:31;1.90;;;1.80;;
74616;SDS011;63123;50.906;4.198;2023-07-16T04:33:56;2.55;;;1.77;;
74616;SDS011;63123;50.906;4.198;2023-07-16T04:36:22;1.83;;;1.60;;
74616;SDS011;63123;50.906;4.198;2023-07-16T04:38:47;2.08;;;1.80;;
74616;SDS011;63123;50.906;4.198;2023-07-16T04:41:13;3.20;;;2.38;;
74616;SDS011;63123;50.906;4.198;2023-07-16T04:43:39;1.55;;;1.40;;
74616;SDS011;63123;50.906;4.198;2023-07-16T04:46:04;2.20;;;2.00;;
74616;SDS011;63123;50.906;4.198;2023-07-16T04:48:30;2.50;;;1.95;;
74616;SDS011;63123;50.906;4.198;2023-07-16T04:50:56;2.45;;;1.88;;
74616;SDS011;63123;50.906;4.198;2023-07-16T04:53:22;2.58;;;1.95;;
74616;SDS011;63123;50.906;4.198;2023-07-16T04:55:48;2.10;;;1.90;;
74616;SDS011;63123;50.906;4.198;2023-07-16T04:58:14;1.92;;;1.67;;
74616;SDS011;63123;50.906;4.198;2023-07-16T05:00:40;2.70;;;1.80;;
74616;SDS011;63123;50.906;4.198;2023-07-16T05:03:06;1.88;;;1.77;;
74616;SDS011;63123;50.906;4.198;2023-07-16T05:05:32;2.17;;;1.85;;
74616;SDS011;63123;50.906;4.198;2023-07-16T05:07:57;2.53;;;1.90;;
74616;SDS011;63123;50.906;4.198;2023-07-16T05:10:23;2.50;;;1.70;;
74616;SDS011;63123;50.906;4.198;2023-07-16T05:12:49;2.15;;;1.88;;
74616;SDS011;63123;50.906;4.198;2023-07-16T05:15:15;2.20;;;2.00;;
74616;SDS011;63123;50.906;4.198;2023-07-16T05:17:41;2.05;;;1.85;;
74616;SDS011;63123;50.906;4.198;2023-07-16T05:20:07;2.30;;;1.77;;
74616;SDS011;63123;50.906;4.198;2023-07-16T05:22:34;1.92;;;1.60;;
74616;SDS011;63123;50.906;4.198;2023-07-16T05:25:00;2.88;;;2.10;;
74616;SDS011;63123;50.906;4.198;2023-07-16T05:27:26;3.05;;;2.05;;
74616;SDS011;63123;50.906;4.198;2023-07-16T05:29:51;2.30;;;1.80;;
74616;SDS011;63123;50.906;4.198;2023-07-16T05:32:17;2.42;;;2.03;;
74616;SDS011;63123;50.906;4.198;2023-07-16T05:34:42;3.22;;;2.25;;
74616;SDS011;63123;50.906;4.198;2023-07-16T05:37:08;2.78;;;2.28;;
74616;SDS011;63123;50.906;4.198;2023-07-16T05:39:34;3.55;;;2.40;;
74616;SDS011;63123;50.906;4.198;2023-07-16T05:41:59;2.50;;;2.00;;
74616;SDS011;63123;50.906;4.198;2023-07-16T05:44:27;3.38;;;2.42;;
74616;SDS011;63123;50.906;4.198;2023-07-16T05:46:53;2.60;;;2.40;;
74616;SDS011;63123;50.906;4.198;2023-07-16T05:49:19;3.40;;;2.50;;
74616;SDS011;63123;50.906;4.198;2023-07-16T05:51:44;3.17;;;2.30;;
74616;SDS011;63123;50.906;4.198;2023-07-16T05:54:10;3.17;;;2.20;;
74616;SDS011;63123;50.906;4.198;2023-07-16T05:56:36;2.30;;;2.10;;
74616;SDS011;63123;50.906;4.198;2023-07-16T05:59:01;2.50;;;2.30;;
74616;SDS011;63123;50.906;4.198;2023-07-16T06:01:27;2.47;;;2.00;;
74616;SDS011;63123;50.906;4.198;2023-07-16T06:03:53;2.85;;;2.65;;
74616;SDS011;63123;50.906;4.198;2023-07-16T06:06:19;2.33;;;2.13;;
74616;SDS011;63123;50.906;4.198;2023-07-16T06:08:44;2.40;;;2.20;;
74616;SDS011;63123;50.906;4.198;2023-07-16T06:11:11;2.72;;;2.17;;
74616;SDS011;63123;50.906;4.198;2023-07-16T06:13:37;2.58;;;2.38;;
74616;SDS011;63123;50.906;4.198;2023-07-16T06:16:03;3.20;;;2.70;;
74616;SDS011;63123;50.906;4.198;2023-07-16T06:18:28;2.40;;;2.20;;
74616;SDS011;63123;50.906;4.198;2023-07-16T06:20:54;2.55;;;2.35;;
74616;SDS011;63123;50.906;4.198;2023-07-16T06:23:20;3.28;;;2.85;;
74616;SDS011;63123;50.906;4.198;2023-07-16T06:25:46;3.25;;;2.08;;
74616;SDS011;63123;50.906;4.198;2023-07-16T06:28:14;2.60;;;2.35;;
74616;SDS011;63123;50.906;4.198;2023-07-16T06:30:40;3.75;;;2.65;;
74616;SDS011;63123;50.906;4.198;2023-07-16T06:33:06;3.35;;;2.53;;
74616;SDS011;63123;50.906;4.198;2023-07-16T06:35:32;4.15;;;2.60;;
74616;SDS011;63123;50.906;4.198;2023-07-16T06:37:58;2.78;;;2.50;;
74616;SDS011;63123;50.906;4.198;2023-07-16T06:40:24;2.85;;;2.60;;
74616;SDS011;63123;50.906;4.198;2023-07-16T06:42:49;3.08;;;2.50;;
74616;SDS011;63123;50.906;4.198;2023-07-16T06:45:17;2.95;;;2.65;;
74616;SDS011;63123;50.906;4.198;2023-07-16T06:47:42;3.08;;;2.78;;
74616;SDS011;63123;50.906;4.198;2023-07-16T06:50:08;3.92;;;3.55;;
74616;SDS011;63123;50.906;4.198;2023-07-16T06:52:34;2.88;;;2.65;;
74616;SDS011;63123;50.906;4.198;2023-07-16T06:55:00;3.65;;;3.35;;
74616;SDS011;63123;50.906;4.198;2023-07-16T06:57:26;3.55;;;3.25;;
74616;SDS011;63123;50.906;4.198;2023-07-16T06:59:51;4.03;;;3.22;;
74616;SDS011;63123;50.906;4.198;2023-07-16T07:02:17;3.40;;;3.10;;
74616;SDS011;63123;50.906;4.198;2023-07-16T07:04:43;5.07;;;2.90;;
74616;SDS011;63123;50.906;4.198;2023-07-16T07:07:09;3.40;;;3.10;;
74616;SDS011;63123;50.906;4.198;2023-07-16T07:09:34;3.50;;;3.10;;
74616;SDS011;63123;50.906;4.198;2023-07-16T07:12:00;4.22;;;3.25;;
74616;SDS011;63123;50.906;4.198;2023-07-16T07:14:26;3.72;;;3.42;;
74616;SDS011;63123;50.906;4.198;2023-07-16T07:16:52;4.45;;;3.17;;
74616;SDS011;63123;50.906;4.198;2023-07-16T07:19:17;3.50;;;3.17;;
74616;SDS011;63123;50.906;4.198;2023-07-16T07:21:43;4.57;;;3.65;;
74616;SDS011;63123;50.906;4.198;2023-07-16T07:24:09;3.60;;;3.30;;
74616;SDS011;63123;50.906;4.198;2023-07-16T07:26:34;4.03;;;3.63;;
74616;SDS011;63123;50.906;4.198;2023-07-16T07:29:00;4.13;;;3.47;;
74616;SDS011;63123;50.906;4.198;2023-07-16T07:31:25;4.00;;;3.63;;
74616;SDS011;63123;50.906;4.198;2023-07-16T07:33:51;4.63;;;3.63;;
74616;SDS011;63123;50.906;4.198;2023-07-16T07:36:18;4.28;;;3.88;;
74616;SDS011;63123;50.906;4.198;2023-07-16T07:38:44;4.70;;;4.20;;
74616;SDS011;63123;50.906;4.198;2023-07-16T07:41:10;4.97;;;3.63;;
74616;SDS011;63123;50.906;4.198;2023-07-16T07:43:35;3.90;;;3.47;;
74616;SDS011;63123;50.906;4.198;2023-07-16T07:46:01;4.45;;;3.35;;
74616;SDS011;63123;50.906;4.198;2023-07-16T07:48:28;3.70;;;3.40;;
74616;SDS011;63123;50.906;4.198;2023-07-16T07:50:53;4.22;;;3.65;;
74616;SDS011;63123;50.906;4.198;2023-07-16T07:53:19;3.60;;;3.30;;
74616;SDS011;63123;50.906;4.198;2023-07-16T07:55:45;3.83;;;3.53;;
74616;SDS011;63123;50.906;4.198;2023-07-16T07:58:10;4.55;;;4.03;;
74616;SDS011;63123;50.906;4.198;2023-07-16T08:00:37;3.85;;;3.55;;
74616;SDS011;63123;50.906;4.198;2023-07-16T08:03:03;4.13;;;3.72;;
74616;SDS011;63123;50.906;4.198;2023-07-16T08:05:28;4.00;;;3.63;;
74616;SDS011;63123;50.906;4.198;2023-07-16T08:07:54;5.25;;;4.18;;
74616;SDS011;63123;50.906;4.198;2023-07-16T08:10:21;4.20;;;3.75;;
74616;SDS011;63123;50.906;4.198;2023-07-16T08:12:47;4.43;;;4.00;;
74616;SDS011;63123;50.906;4.198;2023-07-16T08:15:13;4.68;;;4.20;;
74616;SDS011;63123;50.906;4.198;2023-07-16T08:17:43;5.50;;;3.88;;
74616;SDS011;63123;50.906;4.198;2023-07-16T08:20:09;4.43;;;3.92;;
74616;SDS011;63123;50.906;4.198;2023-07-16T08:22:36;4.78;;;4.35;;
74616;SDS011;63123;50.906;4.198;2023-07-16T08:25:03;4.57;;;3.65;;
74616;SDS011;63123;50.906;4.198;2023-07-16T08:27:29;4.85;;;4.43;;
74616;SDS011;63123;50.906;4.198;2023-07-16T08:29:55;4.03;;;3.63;;
74616;SDS011;63123;50.906;4.198;2023-07-16T08:32:21;4.30;;;3.90;;
74616;SDS011;63123;50.906;4.198;2023-07-16T08:34:47;4.38;;;3.83;;
74616;SDS011;63123;50.906;4.198;2023-07-16T08:37:13;6.05;;;4.03;;
74616;SDS011;63123;50.906;4.198;2023-07-16T08:39:39;4.88;;;4.28;;
74616;SDS011;63123;50.906;4.198;2023-07-16T08:42:05;5.75;;;4.70;;
74616;SDS011;63123;50.906;4.198;2023-07-16T08:44:31;5.07;;;4.28;;
74616;SDS011;63123;50.906;4.198;2023-07-16T08:46:57;4.20;;;3.80;;
74616;SDS011;63123;50.906;4.198;2023-07-16T08:49:23;6.05;;;5.07;;
74616;SDS011;63123;50.906;4.198;2023-07-16T08:51:53;5.03;;;4.03;;
74616;SDS011;63123;50.906;4.198;2023-07-16T08:54:20;4.95;;;3.65;;
74616;SDS011;63123;50.906;4.198;2023-07-16T08:56:47;4.53;;;4.13;;
74616;SDS011;63123;50.906;4.198;2023-07-16T08:59:17;5.10;;;3.95;;
74616;SDS011;63123;50.906;4.198;2023-07-16T09:01:43;4.50;;;4.10;;
74616;SDS011;63123;50.906;4.198;2023-07-16T09:04:09;4.50;;;4.07;;
74616;SDS011;63123;50.906;4.198;2023-07-16T09:06:35;5.63;;;4.32;;
74616;SDS011;63123;50.906;4.198;2023-07-16T09:09:00;4.88;;;4.47;;
74616;SDS011;63123;50.906;4.198;2023-07-16T09:11:26;4.75;;;4.03;;
74616;SDS011;63123;50.906;4.198;2023-07-16T09:13:52;4.85;;;4.15;;
74616;SDS011;63123;50.906;4.198;2023-07-16T09:16:18;5.35;;;4.40;;
74616;SDS011;63123;50.906;4.198;2023-07-16T09:18:44;5.10;;;4.60;;
74616;SDS011;63123;50.906;4.198;2023-07-16T09:21:10;5.90;;;5.30;;
74616;SDS011;63123;50.906;4.198;2023-07-16T09:23:35;7.05;;;4.70;;
74616;SDS011;63123;50.906;4.198;2023-07-16T09:26:02;6.82;;;4.05;;
74616;SDS011;63123;50.906;4.198;2023-07-16T09:28:30;6.35;;;4.13;;
74616;SDS011;63123;50.906;4.198;2023-07-16T09:31:02;6.25;;;4.68;;
74616;SDS011;63123;50.906;4.198;2023-07-16T09:33:30;5.60;;;4.35;;
74616;SDS011;63123;50.906;4.198;2023-07-16T09:35:57;4.95;;;4.45;;
74616;SDS011;63123;50.906;4.198;2023-07-16T09:38:23;5.70;;;4.90;;
74616;SDS011;63123;50.906;4.198;2023-07-16T09:40:49;5.20;;;4.70;;
74616;SDS011;63123;50.906;4.198;2023-07-16T09:43:17;6.60;;;4.38;;
74616;SDS011;63123;50.906;4.198;2023-07-16T09:45:43;5.07;;;4.40;;
74616;SDS011;63123;50.906;4.198;2023-07-16T09:48:09;5.43;;;4.43;;
74616;SDS011;63123;50.906;4.198;2023-07-16T09:50:35;5.80;;;5.20;;
74616;SDS011;63123;50.906;4.198;2023-07-16T09:53:04;5.10;;;4.60;;
74616;SDS011;63123;50.906;4.198;2023-07-16T09:55:33;4.57;;;4.10;;
74616;SDS011;63123;50.906;4.198;2023-07-16T09:58:01;4.72;;;4.10;;
74616;SDS011;63123;50.906;4.198;2023-07-16T10:00:30;4.85;;;4.38;;
74616;SDS011;63123;50.906;4.198;2023-07-16T10:02:58;4.82;;;4.30;;
74616;SDS011;63123;50.906;4.198;2023-07-16T10:05:25;5.93;;;4.72;;
74616;SDS011;63123;50.906;4.198;2023-07-16T10:07:56;4.88;;;4.38;;
74616;SDS011;63123;50.906;4.198;2023-07-16T10:10:38;6.07;;;4.65;;
74616;SDS011;63123;50.906;4.198;2023-07-16T10:13:06;4.70;;;4.13;;
74616;SDS011;63123;50.906;4.198;2023-07-16T10:15:32;5.30;;;4.45;;
74616;SDS011;63123;50.906;4.198;2023-07-16T10:17:58;4.63;;;4.00;;
74616;SDS011;63123;50.906;4.198;2023-07-16T10:20:36;5.97;;;4.45;;
74616;SDS011;63123;50.906;4.198;2023-07-16T10:23:14;5.27;;;4.77;;
74616;SDS011;63123;50.906;4.198;2023-07-16T10:25:56;4.85;;;3.85;;
74616;SDS011;63123;50.906;4.198;2023-07-16T10:28:26;4.47;;;4.07;;
74616;SDS011;63123;50.906;4.198;2023-07-16T10:30:52;5.13;;;4.63;;
74616;SDS011;63123;50.906;4.198;2023-07-16T10:33:18;4.88;;;4.38;;
74616;SDS011;63123;50.906;4.198;2023-07-16T10:35:45;4.65;;;4.10;;
74616;SDS011;63123;50.906;4.198;2023-07-16T10:38:11;4.30;;;3.90;;
74616;SDS011;63123;50.906;4.198;2023-07-16T10:40:43;4.60;;;4.10;;
74616;SDS011;63123;50.906;4.198;2023-07-16T10:43:09;6.97;;;4.50;;
74616;SDS011;63123;50.906;4.198;2023-07-16T10:45:36;4.65;;;4.22;;
74616;SDS011;63123;50.906;4.198;2023-07-16T10:48:01;5.55;;;4.82;;
74616;SDS011;63123;50.906;4.198;2023-07-16T10:50:27;5.20;;;4.65;;
74616;SDS011;63123;50.906;4.198;2023-07-16T10:52:56;5.78;;;4.45;;
74616;SDS011;63123;50.906;4.198;2023-07-16T10:55:22;4.70;;;4.03;;
74616;SDS011;63123;50.906;4.198;2023-07-16T10:57:48;5.60;;;4.40;;
74616;SDS011;63123;50.906;4.198;2023-07-16T11:00:15;4.85;;;3.88;;
74616;SDS011;63123;50.906;4.198;2023-07-16T11:02:42;5.07;;;4.43;;
74616;SDS011;63123;50.906;4.198;2023-07-16T11:05:12;4.57;;;4.18;;
74616;SDS011;63123;50.906;4.198;2023-07-16T11:07:38;4.68;;;4.20;;
74616;SDS011;63123;50.906;4.198;2023-07-16T11:10:11;5.05;;;4.15;;
74616;SDS011;63123;50.906;4.198;2023-07-16T11:12:39;4.20;;;3.53;;
74616;SDS011;63123;50.906;4.198;2023-07-16T11:15:07;4.75;;;4.03;;
74616;SDS011;63123;50.906;4.198;2023-07-16T11:17:33;5.35;;;4.82;;
74616;SDS011;63123;50.906;4.198;2023-07-16T11:19:59;4.75;;;3.58;;
74616;SDS011;63123;50.906;4.198;2023-07-16T11:22:27;6.30;;;4.43;;
74616;SDS011;63123;50.906;4.198;2023-07-16T11:24:54;6.07;;;4.72;;
74616;SDS011;63123;50.906;4.198;2023-07-16T11:27:21;5.90;;;3.70;;
74616;SDS011;63123;50.906;4.198;2023-07-16T11:29:48;6.43;;;4.60;;
74616;SDS011;63123;50.906;4.198;2023-07-16T11:32:28;5.40;;;4.07;;
74616;SDS011;63123;50.906;4.198;2023-07-16T11:34:55;5.10;;;3.95;;
74616;SDS011;63123;50.906;4.198;2023-07-16T11:37:26;6.40;;;4.90;;
74616;SDS011;63123;50.906;4.198;2023-07-16T11:39:57;6.30;;;4.35;;
74616;SDS011;63123;50.906;4.198;2023-07-16T11:42:24;4.65;;;4.20;;
74616;SDS011;63123;50.906;4.198;2023-07-16T11:44:53;5.47;;;4.55;;
74616;SDS011;63123;50.906;4.198;2023-07-16T11:47:19;4.95;;;4.35;;
74616;SDS011;63123;50.906;4.198;2023-07-16T11:49:45;4.63;;;3.83;;
74616;SDS011;63123;50.906;4.198;2023-07-16T11:52:11;4.72;;;4.22;;
74616;SDS011;63123;50.906;4.198;2023-07-16T11:54:37;5.10;;;4.60;;
74616;SDS011;63123;50.906;4.198;2023-07-16T11:57:02;4.50;;;3.83;;
74616;SDS011;63123;50.906;4.198;2023-07-16T11:59:28;4.75;;;3.70;;
74616;SDS011;63123;50.906;4.198;2023-07-16T12:01:54;4.72;;;4.05;;
74616;SDS011;63123;50.906;4.198;2023-07-16T12:04:20;4.68;;;3.60;;
74616;SDS011;63123;50.906;4.198;2023-07-16T12:06:45;4.38;;;3.83;;
74616;SDS011;63123;50.906;4.198;2023-07-16T12:09:11;4.65;;;3.72;;
74616;SDS011;63123;50.906;4.198;2023-07-16T12:11:37;4.53;;;3.70;;
74616;SDS011;63123;50.906;4.198;2023-07-16T12:14:04;4.75;;;4.25;;
74616;SDS011;63123;50.906;4.198;2023-07-16T12:16:30;4.88;;;4.22;;
74616;SDS011;63123;50.906;4.198;2023-07-16T12:18:56;5.40;;;3.72;;
74616;SDS011;63123;50.906;4.198;2023-07-16T12:21:21;5.32;;;4.00;;
74616;SDS011;63123;50.906;4.198;2023-07-16T12:23:47;4.95;;;3.63;;
74616;SDS011;63123;50.906;4.198;2023-07-16T12:26:12;3.92;;;3.33;;
74616;SDS011;63123;50.906;4.198;2023-07-16T12:28:39;4.53;;;3.65;;
74616;SDS011;63123;50.906;4.198;2023-07-16T12:31:05;5.03;;;3.95;;
74616;SDS011;63123;50.906;4.198;2023-07-16T12:33:30;4.35;;;3.70;;
74616;SDS011;63123;50.906;4.198;2023-07-16T12:35:56;5.68;;;3.63;;
74616;SDS011;63123;50.906;4.198;2023-07-16T12:38:21;4.93;;;3.70;;
74616;SDS011;63123;50.906;4.198;2023-07-16T12:40:47;4.45;;;3.67;;
74616;SDS011;63123;50.906;4.198;2023-07-16T12:43:13;6.47;;;3.80;;
74616;SDS011;63123;50.906;4.198;2023-07-16T12:45:39;7.57;;;3.90;;
74616;SDS011;63123;50.906;4.198;2023-07-16T12:48:04;6.43;;;3.78;;
74616;SDS011;63123;50.906;4.198;2023-07-16T12:50:30;4.53;;;3.90;;
74616;SDS011;63123;50.906;4.198;2023-07-16T12:52:56;4.05;;;3.65;;
74616;SDS011;63123;50.906;4.198;2023-07-16T12:55:22;6.35;;;3.75;;
74616;SDS011;63123;50.906;4.198;2023-07-16T12:57:48;6.55;;;4.28;;
74616;SDS011;63123;50.906;4.198;2023-07-16T13:00:14;4.55;;;3.53;;
74616;SDS011;63123;50.906;4.198;2023-07-16T13:02:40;6.07;;;4.28;;
74616;SDS011;63123;50.906;4.198;2023-07-16T13:05:05;5.13;;;3.72;;
74616;SDS011;63123;50.906;4.198;2023-07-16T13:07:31;4.70;;;3.15;;
74616;SDS011;63123;50.906;4.198;2023-07-16T13:09:57;4.10;;;3.40;;
74616;SDS011;63123;50.906;4.198;2023-07-16T13:12:22;4.10;;;3.35;;
74616;SDS011;63123;50.906;4.198;2023-07-16T13:14:48;4.32;;;3.00;;
74616;SDS011;63123;50.906;4.198;2023-07-16T13:17:14;7.10;;;3.72;;
74616;SDS011;63123;50.906;4.198;2023-07-16T13:19:41;3.72;;;3.05;;
74616;SDS011;63123;50.906;4.198;2023-07-16T13:22:07;5.45;;;3.65;;
74616;SDS011;63123;50.906;4.198;2023-07-16T13:24:32;5.97;;;3.22;;
74616;SDS011;63123;50.906;4.198;2023-07-16T13:26:58;4.95;;;3.88;;
74616;SDS011;63123;50.906;4.198;2023-07-16T13:29:24;3.47;;;3.00;;
74616;SDS011;63123;50.906;4.198;2023-07-16T13:31:49;3.30;;;3.00;;
74616;SDS011;63123;50.906;4.198;2023-07-16T13:34:15;2.92;;;2.70;;
74616;SDS011;63123;50.906;4.198;2023-07-16T13:36:40;4.20;;;3.47;;
74616;SDS011;63123;50.906;4.198;2023-07-16T13:39:06;3.33;;;2.78;;
74616;SDS011;63123;50.906;4.198;2023-07-16T13:41:32;4.05;;;3.30;;
74616;SDS011;63123;50.906;4.198;2023-07-16T13:43:57;4.18;;;3.47;;
74616;SDS011;63123;50.906;4.198;2023-07-16T13:46:23;3.25;;;2.92;;
74616;SDS011;63123;50.906;4.198;2023-07-16T13:48:49;5.72;;;2.95;;
74616;SDS011;63123;50.906;4.198;2023-07-16T13:51:14;6.57;;;3.03;;
74616;SDS011;63123;50.906;4.198;2023-07-16T13:53:40;4.78;;;2.97;;
74616;SDS011;63123;50.906;4.198;2023-07-16T13:56:06;4.70;;;3.28;;
74616;SDS011;63123;50.906;4.198;2023-07-16T13:58:33;3.72;;;3.03;;
74616;SDS011;63123;50.906;4.198;2023-07-16T14:00:59;6.63;;;2.85;;
74616;SDS011;63123;50.906;4.198;2023-07-16T14:03:25;6.85;;;3.40;;
74616;SDS011;63123;50.906;4.198;2023-07-16T14:05:51;6.43;;;2.63;;
74616;SDS011;63123;50.906;4.198;2023-07-16T14:08:17;5.15;;;2.78;;
74616;SDS011;63123;50.906;4.198;2023-07-16T14:10:42;5.20;;;2.80;;
74616;SDS011;63123;50.906;4.198;2023-07-16T14:13:08;3.55;;;2.65;;
74616;SDS011;63123;50.906;4.198;2023-07-16T14:15:34;3.70;;;3.13;;
74616;SDS011;63123;50.906;4.198;2023-07-16T14:18:00;3.78;;;2.63;;
74616;SDS011;63123;50.906;4.198;2023-07-16T14:20:26;4.95;;;2.83;;
74616;SDS011;63123;50.906;4.198;2023-07-16T14:22:51;4.32;;;2.58;;
74616;SDS011;63123;50.906;4.198;2023-07-16T14:25:17;3.67;;;2.70;;
74616;SDS011;63123;50.906;4.198;2023-07-16T14:27:43;3.30;;;2.20;;
74616;SDS011;63123;50.906;4.198;2023-07-16T14:30:09;3.08;;;2.67;;
74616;SDS011;63123;50.906;4.198;2023-07-16T14:32:35;3.30;;;3.10;;
74616;SDS011;63123;50.906;4.198;2023-07-16T14:35:01;2.92;;;2.50;;
74616;SDS011;63123;50.906;4.198;2023-07-16T14:37:28;2.97;;;2.45;;
74616;SDS011;63123;50.906;4.198;2023-07-16T14:39:54;3.13;;;2.53;;
74616;SDS011;63123;50.906;4.198;2023-07-16T14:42:20;2.75;;;2.33;;
74616;SDS011;63123;50.906;4.198;2023-07-16T14:44:45;2.72;;;2.45;;
74616;SDS011;63123;50.906;4.198;2023-07-16T14:47:11;3.33;;;2.50;;
74616;SDS011;63123;50.906;4.198;2023-07-16T14:49:36;3.05;;;2.35;;
74616;SDS011;63123;50.906;4.198;2023-07-16T14:52:02;2.75;;;2.25;;
74616;SDS011;63123;50.906;4.198;2023-07-16T14:54:28;3.90;;;2.35;;